Accueil
METAR-TAF:

METAR-TAF

Aéroports :

Aéroport de Saint-Louis

Saint-Louis, Sénégal

latitude: 16-03N, longitude: 016-27W, altitude: 4 m

Observation

Le bulletin a été fait il y a 1 heure et 11 minutes, à 01:00 UTC
Vent 4 kt de nord-ouest, variant entre ouest et nord
Température 27°C
Humidité 89%
Pression 1013 hPa
Visibilité 10 km ou plus
pas de nuages en-dessous de 1500 mètres et pas de cumulonimbus.

METAR: GOSS 020100Z 32004KT 270V010 CAVOK 27/25 Q1013

Heure: 02:11 (02:11 UTC)

Prévision

Le bulletin a été fait il y a 3 heures et 11 minutes, à 23:00 UTC
Prévision valable du 02 à 00 UTC au 02 à 24 UTC
Vent 10 kt de nord-ouest
Visibilité 10 km ou plus
Nuages épars à une hauteur de 1200 ft

TAF: GOSS 012300Z 0200/0224 32010KT 9999 SCT012

Observations et prévisions météorologiques de plus de 4000 aéroports (messages METAR et TAF).

Les stations disponibles sont représentées par des disques jaunes et rouges sur la carte.

Passer la souris dessus pour voir le nom de la station.

Cliquer dessus pour voir les observations et prévisions météorologiques.

Pour changer de carte: cliquez sur les boutons verts avec une croix noire pour zoomer, sur le bouton vert avec un tiret pour effectuer un zoom arrière, ou sur les flèches vertes pour les cartes adjacentes.


METAR-TAF: